Time;durP1;ratioP1;P1;durP2;ratioP2;P2;SDS_P1;SDS_P2;PMS_P1;PMS_P2;Temp;Humidity;BMP_temperature;BMP_pressure;BME280_temperature;BME280_humidity;BME280_pressure;Samples;Min_cycle;Max_cycle;Signal;HPM_P1;HPM_P2
2023/12/17 00:00:14;;;;;;;3.20;2.50;;;;;;;;;;5060357;27;88557;-73
2023/12/17 00:02:42;;;;;;;5.10;2.63;;;;;;;;;;5058920;27;89809;-73
2023/12/17 00:05:31;;;;;;;6.20;2.40;;;;;;;;;;5060163;27;92088;-72
2023/12/17 00:08:01;;;;;;;5.37;2.83;;;;;;;;;;5061032;27;89927;-74
2023/12/17 00:10:31;;;;;;;4.90;3.13;;;;;;;;;;5062368;27;87581;-73
2023/12/17 00:12:59;;;;;;;3.63;2.27;;;;;;;;;;5063605;27;89747;-72
2023/12/17 00:15:28;;;;;;;3.47;2.57;;;;;;;;;;5061851;27;89147;-72
2023/12/17 00:17:56;;;;;;;4.57;2.70;;;;;;;;;;5068105;27;88428;-72
2023/12/17 00:20:25;;;;;;;5.20;2.83;;;;;;;;;;5056402;27;87790;-72
2023/12/17 00:22:55;;;;;;;5.37;2.40;;;;;;;;;;5056002;27;89792;-72
2023/12/17 00:25:25;;;;;;;4.40;2.87;;;;;;;;;;5056219;27;88001;-72
2023/12/17 00:27:54;;;;;;;4.13;2.83;;;;;;;;;;5059401;27;87557;-72
2023/12/17 00:30:23;;;;;;;3.80;2.70;;;;;;;;;;5060873;27;87976;-72
2023/12/17 00:32:51;;;;;;;3.70;2.40;;;;;;;;;;5062481;27;89763;-72
2023/12/17 00:35:21;;;;;;;5.30;3.57;;;;;;;;;;5071457;27;89176;-72
2023/12/17 00:37:50;;;;;;;4.50;2.77;;;;;;;;;;5081939;27;89685;-72
2023/12/17 00:40:21;;;;;;;5.13;2.77;;;;;;;;;;5072452;27;87685;-72
2023/12/17 00:42:52;;;;;;;3.53;2.77;;;;;;;;;;5069892;27;89362;-73
2023/12/17 00:45:20;;;;;;;5.63;3.27;;;;;;;;;;5066300;27;89142;-72
2023/12/17 00:47:49;;;;;;;4.37;2.70;;;;;;;;;;5060816;27;88901;-72
2023/12/17 00:50:18;;;;;;;2.53;2.27;;;;;;;;;;5073160;27;87780;-72
2023/12/17 00:52:46;;;;;;;3.17;2.40;;;;;;;;;;5064359;27;89621;-72
2023/12/17 00:55:14;;;;;;;5.13;2.27;;;;;;;;;;5059987;27;90015;-71
2023/12/17 00:57:44;;;;;;;4.90;2.57;;;;;;;;;;5059278;27;90311;-72
2023/12/17 01:00:15;;;;;;;4.50;2.70;;;;;;;;;;5059141;27;87688;-71
2023/12/17 01:02:45;;;;;;;3.20;2.37;;;;;;;;;;5059846;27;89689;-72
2023/12/17 01:05:14;;;;;;;3.13;2.40;;;;;;;;;;5062629;27;89245;-72
2023/12/17 01:07:42;;;;;;;3.67;2.47;;;;;;;;;;5065511;27;89127;-72
2023/12/17 01:10:11;;;;;;;2.33;1.90;;;;;;;;;;5059618;27;87614;-72
2023/12/17 01:12:40;;;;;;;3.60;2.50;;;;;;;;;;5060620;27;89673;-72
2023/12/17 01:15:10;;;;;;;4.90;2.70;;;;;;;;;;5062476;27;89530;-72
2023/12/17 01:17:41;;;;;;;3.27;2.37;;;;;;;;;;5058661;27;89634;-72
2023/12/17 01:20:11;;;;;;;4.43;2.20;;;;;;;;;;5057114;27;88417;-72
2023/12/17 01:22:40;;;;;;;4.07;2.83;;;;;;;;;;5060142;27;89577;-71
2023/12/17 01:25:09;;;;;;;4.73;2.57;;;;;;;;;;5060730;27;88974;-72
2023/12/17 01:27:38;;;;;;;2.70;2.00;;;;;;;;;;5060402;27;88809;-74
2023/12/17 01:30:08;;;;;;;3.93;2.50;;;;;;;;;;5060294;27;87593;-74
2023/12/17 01:32:38;;;;;;;2.63;1.70;;;;;;;;;;5060088;27;89636;-73
2023/12/17 01:35:08;;;;;;;2.73;2.00;;;;;;;;;;5060069;27;88997;-74
2023/12/17 01:37:37;;;;;;;4.90;2.47;;;;;;;;;;5059619;27;88866;-74
2023/12/17 01:40:06;;;;;;;2.33;1.90;;;;;;;;;;5059972;27;87647;-74
2023/12/17 01:42:35;;;;;;;3.47;2.27;;;;;;;;;;5060045;27;89477;-73
2023/12/17 01:45:06;;;;;;;3.33;1.97;;;;;;;;;;5066175;27;88936;-74
2023/12/17 01:47:35;;;;;;;1.40;1.30;;;;;;;;;;5066172;27;89708;-74
2023/12/17 01:50:05;;;;;;;4.00;2.23;;;;;;;;;;5059648;27;89131;-73
2023/12/17 01:52:35;;;;;;;1.80;1.60;;;;;;;;;;5059953;27;89944;-73
2023/12/17 01:55:06;;;;;;;3.47;2.07;;;;;;;;;;5060125;27;89211;-73
2023/12/17 01:57:35;;;;;;;4.20;2.13;;;;;;;;;;5059834;27;88837;-73
2023/12/17 02:00:03;;;;;;;4.80;2.00;;;;;;;;;;5059379;27;87648;-74
2023/12/17 02:02:32;;;;;;;4.43;2.17;;;;;;;;;;5062938;27;88371;-74
2023/12/17 02:05:03;;;;;;;3.13;2.00;;;;;;;;;;5063225;27;88301;-73
2023/12/17 02:07:31;;;;;;;3.60;2.33;;;;;;;;;;5063805;27;88866;-74
2023/12/17 02:09:59;;;;;;;3.93;2.40;;;;;;;;;;5062181;27;87967;-74
2023/12/17 02:12:29;;;;;;;4.50;2.43;;;;;;;;;;5062708;27;89701;-74
2023/12/17 02:15:01;;;;;;;3.97;2.10;;;;;;;;;;5063272;27;89023;-74
2023/12/17 02:17:29;;;;;;;3.07;2.77;;;;;;;;;;5063201;27;88807;-73
2023/12/17 02:20:00;;;;;;;5.73;2.33;;;;;;;;;;5063717;27;87622;-74
2023/12/17 02:22:28;;;;;;;4.57;2.90;;;;;;;;;;5082961;27;89643;-74
2023/12/17 02:25:00;;;;;;;4.03;2.93;;;;;;;;;;5063198;27;89165;-74
2023/12/17 02:27:28;;;;;;;4.53;3.37;;;;;;;;;;5063685;27;88932;-74
2023/12/17 02:29:57;;;;;;;6.10;3.80;;;;;;;;;;5062717;27;87754;-74
2023/12/17 02:32:25;;;;;;;4.37;3.00;;;;;;;;;;5063337;27;89704;-73
2023/12/17 02:34:55;;;;;;;6.30;3.60;;;;;;;;;;5062253;27;89005;-73
2023/12/17 02:37:24;;;;;;;4.53;3.50;;;;;;;;;;5063028;27;88635;-73
2023/12/17 02:39:52;;;;;;;5.13;4.17;;;;;;;;;;5063148;27;87279;-73
2023/12/17 02:42:23;;;;;;;7.60;4.03;;;;;;;;;;5062844;27;89617;-73
2023/12/17 02:44:51;;;;;;;7.67;4.53;;;;;;;;;;5063084;27;88068;-73
2023/12/17 02:47:20;;;;;;;7.93;4.60;;;;;;;;;;5062697;27;88861;-73
2023/12/17 02:49:49;;;;;;;8.17;4.67;;;;;;;;;;5062647;27;87617;-73
2023/12/17 02:52:18;;;;;;;12.03;6.13;;;;;;;;;;5061845;27;89676;-72
2023/12/17 02:54:48;;;;;;;7.23;4.83;;;;;;;;;;5062355;27;89071;-73
2023/12/17 02:57:16;;;;;;;7.70;4.87;;;;;;;;;;5061972;27;87769;-73
2023/12/17 02:59:46;;;;;;;7.27;4.87;;;;;;;;;;5062604;27;87762;-72
2023/12/17 03:02:16;;;;;;;10.10;5.37;;;;;;;;;;5062541;27;88212;-73
2023/12/17 03:04:44;;;;;;;7.27;5.60;;;;;;;;;;5061480;27;89105;-73
2023/12/17 03:07:12;;;;;;;6.60;5.33;;;;;;;;;;5062403;27;88454;-73
2023/12/17 03:09:42;;;;;;;10.70;4.77;;;;;;;;;;5062328;27;88756;-72
2023/12/17 03:12:11;;;;;;;7.83;5.07;;;;;;;;;;5061272;27;89523;-73
2023/12/17 03:14:40;;;;;;;6.97;4.97;;;;;;;;;;5061851;27;89279;-73
2023/12/17 03:17:10;;;;;;;9.20;5.00;;;;;;;;;;5061952;27;88989;-73
2023/12/17 03:19:43;;;;;;;9.13;5.50;;;;;;;;;;5062668;27;87460;-73
2023/12/17 03:22:11;;;;;;;9.00;4.67;;;;;;;;;;5062555;27;89729;-73
2023/12/17 03:24:40;;;;;;;5.27;4.13;;;;;;;;;;5056467;27;90111;-73
2023/12/17 03:27:08;;;;;;;8.23;5.50;;;;;;;;;;5062118;27;89799;-73
2023/12/17 03:29:37;;;;;;;7.73;5.53;;;;;;;;;;5062354;27;87559;-73
2023/12/17 03:32:05;;;;;;;6.80;4.87;;;;;;;;;;5061646;27;90226;-73
2023/12/17 03:34:36;;;;;;;5.93;4.63;;;;;;;;;;5062072;27;89079;-73
2023/12/17 03:37:05;;;;;;;10.83;4.73;;;;;;;;;;5062243;27;88674;-73
2023/12/17 03:39:33;;;;;;;7.93;5.33;;;;;;;;;;5062519;27;87637;-73
2023/12/17 03:42:03;;;;;;;7.10;4.70;;;;;;;;;;5061543;27;89592;-73
2023/12/17 03:44:34;;;;;;;7.30;4.13;;;;;;;;;;5062391;27;89333;-72
2023/12/17 03:47:03;;;;;;;7.20;4.53;;;;;;;;;;5060641;27;88792;-73
2023/12/17 03:49:31;;;;;;;6.03;4.37;;;;;;;;;;5062011;27;87801;-72
2023/12/17 03:52:03;;;;;;;9.20;4.47;;;;;;;;;;5060662;27;89686;-72
2023/12/17 03:54:31;;;;;;;6.73;4.20;;;;;;;;;;5061710;27;89246;-72
2023/12/17 03:56:59;;;;;;;8.87;3.93;;;;;;;;;;5061205;27;88890;-72
2023/12/17 03:59:29;;;;;;;9.57;4.53;;;;;;;;;;5062198;27;87152;-72
2023/12/17 04:02:01;;;;;;;6.03;4.47;;;;;;;;;;5061719;27;90023;-72
2023/12/17 04:04:30;;;;;;;5.53;3.60;;;;;;;;;;5061987;27;89314;-73
2023/12/17 04:07:00;;;;;;;7.97;4.33;;;;;;;;;;5060579;27;88493;-73
2023/12/17 04:09:32;;;;;;;7.27;3.90;;;;;;;;;;5061344;27;87974;-73
2023/12/17 04:12:01;;;;;;;5.70;3.47;;;;;;;;;;5053920;27;89796;-72
2023/12/17 04:14:29;;;;;;;4.30;3.47;;;;;;;;;;5061214;27;88953;-73
2023/12/17 04:16:59;;;;;;;4.90;3.23;;;;;;;;;;5061031;27;88658;-73
2023/12/17 04:19:27;;;;;;;6.07;3.73;;;;;;;;;;5061456;27;87598;-73
2023/12/17 04:21:55;;;;;;;4.03;3.00;;;;;;;;;;5060918;27;89897;-73
2023/12/17 04:24:25;;;;;;;8.10;3.60;;;;;;;;;;5048918;27;89027;-73
2023/12/17 04:26:56;;;;;;;5.27;3.53;;;;;;;;;;5047768;27;88899;-73
2023/12/17 04:29:24;;;;;;;6.70;3.47;;;;;;;;;;5062245;27;87433;-73
2023/12/17 04:31:53;;;;;;;4.37;2.97;;;;;;;;;;5061488;27;90250;-73
2023/12/17 04:34:21;;;;;;;2.77;2.07;;;;;;;;;;5061112;27;89232;-72
2023/12/17 04:36:50;;;;;;;4.07;2.47;;;;;;;;;;5053932;27;87365;-72
2023/12/17 04:39:20;;;;;;;5.67;2.70;;;;;;;;;;5068922;27;87850;-73
2023/12/17 04:41:49;;;;;;;5.47;2.77;;;;;;;;;;5080824;27;90129;-72
2023/12/17 04:44:19;;;;;;;4.73;2.70;;;;;;;;;;5082161;27;88110;-73
2023/12/17 04:46:52;;;;;;;5.63;2.40;;;;;;;;;;5074980;27;88843;-72
2023/12/17 04:49:21;;;;;;;3.17;2.37;;;;;;;;;;5041405;28;87427;-72
2023/12/17 04:51:49;;;;;;;4.43;2.30;;;;;;;;;;5047894;27;88445;-73
2023/12/17 04:54:18;;;;;;;3.20;2.37;;;;;;;;;;5055868;27;88040;-73
2023/12/17 04:56:48;;;;;;;3.50;1.80;;;;;;;;;;5057279;27;90425;-73
2023/12/17 04:59:18;;;;;;;3.37;2.03;;;;;;;;;;5057543;27;87655;-72
2023/12/17 05:01:50;;;;;;;2.60;1.93;;;;;;;;;;5057540;27;89595;-73
2023/12/17 05:04:18;;;;;;;2.70;1.70;;;;;;;;;;5057226;27;90054;-73
2023/12/17 05:06:47;;;;;;;2.17;1.67;;;;;;;;;;5056664;27;89456;-73
2023/12/17 05:09:16;;;;;;;4.80;2.23;;;;;;;;;;5057372;27;87671;-73
2023/12/17 05:11:47;;;;;;;2.57;1.73;;;;;;;;;;5068846;27;89704;-72
2023/12/17 05:14:16;;;;;;;2.50;1.73;;;;;;;;;;5057289;27;89224;-72
2023/12/17 05:16:47;;;;;;;2.87;1.60;;;;;;;;;;5056584;27;89629;-73
2023/12/17 05:19:16;;;;;;;1.63;1.13;;;;;;;;;;5058007;27;88359;-73
2023/12/17 05:21:44;;;;;;;2.00;1.30;;;;;;;;;;5056284;27;89612;-73
2023/12/17 05:24:13;;;;;;;6.17;1.70;;;;;;;;;;5056856;27;88371;-73
2023/12/17 05:26:41;;;;;;;2.97;1.30;;;;;;;;;;5057121;27;87755;-74
2023/12/17 05:29:10;;;;;;;1.77;1.37;;;;;;;;;;5055773;27;88628;-74
2023/12/17 05:31:38;;;;;;;3.87;1.40;;;;;;;;;;5057486;27;89635;-73
2023/12/17 05:34:09;;;;;;;1.87;1.33;;;;;;;;;;5056864;27;88076;-74
2023/12/17 05:36:38;;;;;;;1.50;1.40;;;;;;;;;;5058637;27;89052;-73
2023/12/17 05:39:07;;;;;;;2.87;1.50;;;;;;;;;;5060295;27;87657;-73
2023/12/17 05:41:38;;;;;;;3.60;1.40;;;;;;;;;;5060364;27;92980;-73
2023/12/17 05:44:06;;;;;;;3.87;2.40;;;;;;;;;;5060450;27;89177;-72
2023/12/17 05:46:37;;;;;;;3.97;1.20;;;;;;;;;;5061093;27;87592;-71
2023/12/17 05:49:06;;;;;;;4.63;1.87;;;;;;;;;;5059860;27;87658;-72
2023/12/17 05:51:37;;;;;;;1.77;1.53;;;;;;;;;;5058928;27;89742;-72
2023/12/17 05:54:08;;;;;;;4.03;1.87;;;;;;;;;;5059804;27;89935;-72
2023/12/17 05:56:40;;;;;;;3.30;1.87;;;;;;;;;;5060246;27;89712;-72
2023/12/17 05:59:08;;;;;;;3.07;2.33;;;;;;;;;;5060586;27;87637;-73
2023/12/17 06:01:37;;;;;;;4.27;2.47;;;;;;;;;;5059967;27;89764;-71
2023/12/17 06:04:07;;;;;;;2.63;2.30;;;;;;;;;;5059574;27;89004;-70
2023/12/17 06:06:38;;;;;;;5.17;2.00;;;;;;;;;;5059754;27;91346;-73
2023/12/17 06:09:09;;;;;;;3.10;2.47;;;;;;;;;;5060961;27;87603;-71
2023/12/17 06:11:41;;;;;;;4.47;2.53;;;;;;;;;;5060451;27;89600;-72
2023/12/17 06:14:10;;;;;;;3.70;2.70;;;;;;;;;;5060239;27;89097;-71
2023/12/17 06:16:43;;;;;;;2.47;2.20;;;;;;;;;;5061601;27;89060;-72
2023/12/17 06:19:12;;;;;;;6.07;2.43;;;;;;;;;;5060118;27;88552;-73
2023/12/17 06:21:42;;;;;;;5.63;3.47;;;;;;;;;;5059798;27;89653;-71
2023/12/17 06:24:10;;;;;;;5.17;3.40;;;;;;;;;;5059685;27;88155;-69
2023/12/17 06:26:40;;;;;;;6.63;2.97;;;;;;;;;;5059632;27;88075;-70
2023/12/17 06:29:12;;;;;;;8.50;3.60;;;;;;;;;;5060231;27;87683;-68
2023/12/17 06:31:42;;;;;;;6.17;3.73;;;;;;;;;;5060481;27;89510;-68
2023/12/17 06:34:10;;;;;;;6.60;4.10;;;;;;;;;;5059735;27;89138;-69
2023/12/17 06:36:41;;;;;;;6.43;3.97;;;;;;;;;;5060183;27;88940;-69
2023/12/17 06:39:14;;;;;;;6.80;3.43;;;;;;;;;;5060119;27;87731;-70
2023/12/17 06:41:46;;;;;;;9.87;4.37;;;;;;;;;;5060127;27;89735;-69
2023/12/17 06:44:15;;;;;;;5.97;4.53;;;;;;;;;;5059122;27;90279;-69
2023/12/17 06:46:44;;;;;;;6.23;4.10;;;;;;;;;;5060258;27;90269;-69
2023/12/17 06:49:14;;;;;;;5.77;3.83;;;;;;;;;;5057778;27;89434;-68
2023/12/17 06:51:42;;;;;;;6.70;4.70;;;;;;;;;;5059263;27;88334;-69
2023/12/17 06:54:12;;;;;;;7.03;4.33;;;;;;;;;;5060095;27;88019;-68
2023/12/17 06:56:42;;;;;;;5.97;4.17;;;;;;;;;;5059286;27;88887;-69
2023/12/17 06:59:10;;;;;;;6.20;4.77;;;;;;;;;;5059172;27;87590;-69
2023/12/17 07:01:38;;;;;;;6.20;4.23;;;;;;;;;;5059646;27;88447;-69
2023/12/17 07:04:07;;;;;;;6.23;3.53;;;;;;;;;;5058827;27;91628;-69
2023/12/17 07:06:37;;;;;;;6.20;3.83;;;;;;;;;;5059791;27;88715;-68
2023/12/17 07:09:07;;;;;;;5.93;4.50;;;;;;;;;;5059651;27;88147;-68
2023/12/17 07:11:37;;;;;;;5.70;4.27;;;;;;;;;;5056704;27;89751;-67
2023/12/17 07:14:06;;;;;;;5.10;4.60;;;;;;;;;;5057397;27;88768;-68
2023/12/17 07:16:34;;;;;;;7.50;4.30;;;;;;;;;;5058725;27;88982;-68
2023/12/17 07:19:03;;;;;;;5.90;3.70;;;;;;;;;;5057970;27;87719;-68
2023/12/17 07:21:32;;;;;;;6.17;4.70;;;;;;;;;;5059045;27;89752;-69
2023/12/17 07:24:00;;;;;;;7.40;4.30;;;;;;;;;;5059108;27;89188;-68
2023/12/17 07:26:29;;;;;;;8.33;4.60;;;;;;;;;;5059936;27;88933;-68
2023/12/17 07:28:58;;;;;;;7.27;5.17;;;;;;;;;;5058637;27;87749;-68
2023/12/17 07:31:27;;;;;;;6.67;4.40;;;;;;;;;;5057802;27;90332;-68
2023/12/17 07:33:55;;;;;;;8.00;4.97;;;;;;;;;;5057363;27;90139;-68
2023/12/17 07:36:27;;;;;;;7.07;3.70;;;;;;;;;;5058274;27;90935;-68
2023/12/17 07:38:58;;;;;;;6.60;3.97;;;;;;;;;;5058807;27;88214;-68
2023/12/17 07:41:27;;;;;;;9.57;3.73;;;;;;;;;;5073631;27;89682;-68
2023/12/17 07:43:55;;;;;;;6.37;3.60;;;;;;;;;;5076397;27;89106;-69
2023/12/17 07:46:25;;;;;;;6.33;3.90;;;;;;;;;;5058801;27;89487;-69
2023/12/17 07:48:54;;;;;;;5.00;3.57;;;;;;;;;;5059289;27;88265;-69
2023/12/17 07:51:22;;;;;;;6.27;4.10;;;;;;;;;;5058034;27;88276;-68
2023/12/17 07:53:51;;;;;;;8.50;3.47;;;;;;;;;;5058587;27;87417;-69
2023/12/17 07:56:21;;;;;;;7.57;4.07;;;;;;;;;;5063013;27;87748;-68
2023/12/17 07:58:53;;;;;;;6.13;4.13;;;;;;;;;;5071465;27;88163;-68
2023/12/17 08:01:30;;;;;;;5.53;3.70;;;;;;;;;;5057421;27;92457;-69
2023/12/17 08:03:59;;;;;;;6.63;4.03;;;;;;;;;;5055782;27;89268;-68
2023/12/17 08:06:29;;;;;;;5.27;4.00;;;;;;;;;;5059839;27;88739;-69
2023/12/17 08:09:01;;;;;;;5.40;4.20;;;;;;;;;;5055223;27;88165;-69
2023/12/17 08:11:34;;;;;;;4.10;2.73;;;;;;;;;;5054181;27;89844;-71
2023/12/17 08:14:02;;;;;;;7.27;3.90;;;;;;;;;;5061084;27;89076;-68
2023/12/17 08:16:32;;;;;;;5.37;3.60;;;;;;;;;;5058755;27;88940;-68
2023/12/17 08:19:03;;;;;;;4.63;3.10;;;;;;;;;;5073462;27;87705;-70
2023/12/17 08:21:33;;;;;;;4.63;3.17;;;;;;;;;;5057808;27;89753;-68
2023/12/17 08:24:01;;;;;;;5.83;3.23;;;;;;;;;;5059333;27;90122;-69
2023/12/17 08:26:30;;;;;;;6.33;3.60;;;;;;;;;;5059725;27;88653;-68
2023/12/17 08:28:58;;;;;;;4.03;3.33;;;;;;;;;;5059711;27;87751;-67
2023/12/17 08:31:28;;;;;;;4.67;3.67;;;;;;;;;;5060845;27;89716;-68
2023/12/17 08:33:58;;;;;;;5.50;3.63;;;;;;;;;;5060985;27;88075;-68
2023/12/17 08:36:27;;;;;;;4.57;3.57;;;;;;;;;;5061154;27;89085;-68
2023/12/17 08:38:58;;;;;;;7.20;3.37;;;;;;;;;;5061539;27;87597;-69
2023/12/17 08:41:26;;;;;;;4.93;3.40;;;;;;;;;;5061493;27;89796;-69
2023/12/17 08:43:56;;;;;;;6.50;4.47;;;;;;;;;;5061173;27;89289;-69
2023/12/17 08:46:24;;;;;;;12.43;3.97;;;;;;;;;;5060699;27;88851;-69
2023/12/17 08:48:55;;;;;;;4.63;3.67;;;;;;;;;;5061096;27;87855;-69
2023/12/17 08:51:26;;;;;;;7.47;4.17;;;;;;;;;;5060962;27;89645;-69
2023/12/17 08:53:55;;;;;;;6.73;3.97;;;;;;;;;;5060472;27;89168;-69
2023/12/17 08:56:23;;;;;;;5.87;4.03;;;;;;;;;;5060844;27;88846;-68
2023/12/17 08:58:51;;;;;;;6.07;3.67;;;;;;;;;;5060950;27;87294;-69
2023/12/17 09:01:21;;;;;;;5.60;3.43;;;;;;;;;;5060750;27;89668;-69
2023/12/17 09:03:51;;;;;;;7.00;4.50;;;;;;;;;;5065172;27;89150;-70
2023/12/17 09:06:24;;;;;;;7.03;4.27;;;;;;;;;;5063776;27;87741;-68
2023/12/17 09:08:53;;;;;;;6.33;3.70;;;;;;;;;;5060306;27;87621;-67
2023/12/17 09:11:22;;;;;;;6.67;3.40;;;;;;;;;;5059533;27;89475;-68
2023/12/17 09:13:50;;;;;;;6.47;3.40;;;;;;;;;;5060048;27;90068;-66
2023/12/17 09:16:18;;;;;;;6.70;3.70;;;;;;;;;;5061063;27;90116;-67
2023/12/17 09:18:47;;;;;;;5.90;3.50;;;;;;;;;;5060454;27;87617;-70
2023/12/17 09:21:15;;;;;;;6.27;4.00;;;;;;;;;;5052673;27;89890;-68
2023/12/17 09:23:43;;;;;;;7.57;4.03;;;;;;;;;;5036998;28;89243;-69
2023/12/17 09:26:13;;;;;;;5.30;3.80;;;;;;;;;;5037217;28;88797;-70
2023/12/17 09:28:43;;;;;;;6.67;3.73;;;;;;;;;;5051165;27;87700;-70
2023/12/17 09:31:11;;;;;;;6.37;4.47;;;;;;;;;;5057477;27;89308;-69
2023/12/17 09:33:41;;;;;;;10.13;4.90;;;;;;;;;;5056840;27;89078;-68
2023/12/17 09:36:10;;;;;;;6.97;3.70;;;;;;;;;;5056981;27;88903;-69
2023/12/17 09:38:39;;;;;;;8.70;4.77;;;;;;;;;;5056807;27;87955;-70
2023/12/17 09:41:08;;;;;;;7.20;4.10;;;;;;;;;;5057353;27;88286;-71
2023/12/17 09:43:38;;;;;;;9.67;4.23;;;;;;;;;;5056842;27;89474;-71
2023/12/17 09:46:06;;;;;;;7.93;4.57;;;;;;;;;;5057575;27;89238;-71
2023/12/17 09:48:35;;;;;;;5.17;3.97;;;;;;;;;;5048722;27;87671;-71
2023/12/17 09:51:04;;;;;;;6.93;4.53;;;;;;;;;;5056588;27;90075;-70
2023/12/17 09:53:32;;;;;;;9.00;5.80;;;;;;;;;;5057030;27;88688;-70
2023/12/17 09:56:01;;;;;;;8.30;5.17;;;;;;;;;;5057161;27;87740;-71
2023/12/17 09:58:29;;;;;;;8.47;5.00;;;;;;;;;;5056726;27;87627;-68
2023/12/17 10:01:01;;;;;;;9.03;5.10;;;;;;;;;;5056417;27;89574;-68
2023/12/17 10:03:30;;;;;;;9.97;5.73;;;;;;;;;;5055010;27;89869;-68
2023/12/17 10:05:58;;;;;;;8.60;5.47;;;;;;;;;;5056516;27;89724;-68
2023/12/17 10:08:26;;;;;;;9.63;5.23;;;;;;;;;;5056453;27;87695;-69
2023/12/17 10:10:55;;;;;;;6.00;4.87;;;;;;;;;;5057030;27;89660;-69
2023/12/17 10:13:23;;;;;;;7.40;4.73;;;;;;;;;;5055729;27;89094;-69
2023/12/17 10:15:52;;;;;;;7.53;5.50;;;;;;;;;;5055693;27;91556;-69
2023/12/17 10:18:22;;;;;;;8.67;5.37;;;;;;;;;;5056384;27;89259;-69
2023/12/17 10:20:51;;;;;;;7.87;5.33;;;;;;;;;;5057050;27;88447;-69
2023/12/17 10:23:19;;;;;;;8.47;5.33;;;;;;;;;;5059652;27;89129;-69
2023/12/17 10:25:47;;;;;;;9.43;5.70;;;;;;;;;;5060386;27;88979;-70
2023/12/17 10:28:16;;;;;;;10.37;5.87;;;;;;;;;;5059821;27;87937;-71
2023/12/17 10:30:47;;;;;;;11.40;6.50;;;;;;;;;;5060387;27;89706;-69
2023/12/17 10:33:17;;;;;;;10.73;5.67;;;;;;;;;;5060744;27;89145;-68
2023/12/17 10:35:48;;;;;;;8.63;6.07;;;;;;;;;;5060352;27;88943;-72
2023/12/17 10:38:18;;;;;;;11.23;7.10;;;;;;;;;;5057421;27;87666;-69
2023/12/17 10:40:47;;;;;;;11.80;7.60;;;;;;;;;;5060508;27;89633;-70
2023/12/17 10:43:15;;;;;;;8.00;5.80;;;;;;;;;;5061386;27;89239;-71
2023/12/17 10:45:46;;;;;;;8.97;5.03;;;;;;;;;;5072778;27;88871;-69
2023/12/17 10:48:15;;;;;;;9.23;5.00;;;;;;;;;;5057795;27;87573;-67
2023/12/17 10:50:48;;;;;;;8.23;4.97;;;;;;;;;;5058828;27;89815;-68
2023/12/17 10:53:18;;;;;;;7.43;4.90;;;;;;;;;;5059827;27;89131;-68
2023/12/17 10:55:46;;;;;;;10.53;5.90;;;;;;;;;;5058489;27;89696;-70
2023/12/17 10:58:17;;;;;;;11.83;6.47;;;;;;;;;;5055924;27;89680;-70
2023/12/17 11:00:45;;;;;;;7.63;5.90;;;;;;;;;;5055193;27;89945;-70
2023/12/17 11:03:14;;;;;;;8.20;5.10;;;;;;;;;;5058884;27;89128;-70
2023/12/17 11:05:54;;;;;;;13.03;6.67;;;;;;;;;;5057027;27;88789;-70
2023/12/17 11:08:25;;;;;;;9.13;5.93;;;;;;;;;;5053390;27;87710;-72
2023/12/17 11:10:53;;;;;;;7.30;4.63;;;;;;;;;;5057110;27;89894;-72
2023/12/17 11:13:22;;;;;;;10.37;4.60;;;;;;;;;;5073413;27;89040;-73
2023/12/17 11:15:51;;;;;;;7.43;4.53;;;;;;;;;;5061820;27;88887;-70
2023/12/17 11:18:19;;;;;;;7.87;5.17;;;;;;;;;;5064184;27;88915;-71
2023/12/17 11:20:48;;;;;;;8.37;5.40;;;;;;;;;;5063831;27;89631;-72
2023/12/17 11:23:18;;;;;;;8.60;5.33;;;;;;;;;;5058644;27;89070;-71
2023/12/17 11:25:48;;;;;;;9.37;6.37;;;;;;;;;;5057347;27;88877;-70
2023/12/17 11:28:20;;;;;;;9.53;5.80;;;;;;;;;;5057110;27;87653;-70
2023/12/17 11:30:49;;;;;;;10.40;5.97;;;;;;;;;;5057088;27;89571;-69
2023/12/17 11:33:18;;;;;;;7.80;5.30;;;;;;;;;;5057821;27;89087;-70
2023/12/17 11:35:46;;;;;;;9.87;5.67;;;;;;;;;;5069453;27;88887;-71
2023/12/17 11:38:15;;;;;;;8.57;6.17;;;;;;;;;;5061771;27;87629;-70
2023/12/17 11:40:43;;;;;;;10.83;5.80;;;;;;;;;;5056902;27;89767;-70
2023/12/17 11:43:14;;;;;;;13.20;6.70;;;;;;;;;;5058042;27;90346;-70
2023/12/17 11:45:44;;;;;;;9.77;6.60;;;;;;;;;;5060247;27;90055;-70
2023/12/17 11:48:14;;;;;;;9.53;5.77;;;;;;;;;;5059045;27;87772;-70
2023/12/17 11:50:44;;;;;;;7.40;5.57;;;;;;;;;;5043973;27;89710;-69
2023/12/17 11:53:15;;;;;;;8.87;6.17;;;;;;;;;;5057815;27;89240;-70
2023/12/17 11:55:44;;;;;;;9.53;6.20;;;;;;;;;;5056742;27;90317;-70
2023/12/17 11:58:17;;;;;;;10.37;5.93;;;;;;;;;;5054433;27;88459;-69
2023/12/17 12:01:02;;;;;;;10.37;6.57;;;;;;;;;;5055216;27;89650;-70
2023/12/17 12:03:31;;;;;;;11.97;6.87;;;;;;;;;;5058703;27;89532;-70
2023/12/17 12:06:03;;;;;;;9.77;6.23;;;;;;;;;;5058271;27;88905;-71
2023/12/17 12:08:35;;;;;;;10.70;6.23;;;;;;;;;;5056568;27;88031;-71
2023/12/17 12:11:07;;;;;;;13.63;7.03;;;;;;;;;;5057412;27;89630;-73
2023/12/17 12:13:40;;;;;;;13.10;7.00;;;;;;;;;;5057314;27;89637;-72
2023/12/17 12:16:10;;;;;;;8.97;5.90;;;;;;;;;;5057692;27;88961;-72
2023/12/17 12:18:38;;;;;;;9.20;6.40;;;;;;;;;;5068688;27;88477;-72
2023/12/17 12:21:18;;;;;;;10.57;6.87;;;;;;;;;;5066662;27;88464;-72
2023/12/17 12:23:50;;;;;;;12.47;6.83;;;;;;;;;;5070078;27;89006;-72
2023/12/17 12:26:22;;;;;;;10.57;6.83;;;;;;;;;;5057845;27;89023;-73
2023/12/17 12:28:58;;;;;;;11.03;6.10;;;;;;;;;;5062503;27;87689;-73
2023/12/17 12:31:27;;;;;;;10.47;6.30;;;;;;;;;;5058738;27;89745;-72
2023/12/17 12:33:56;;;;;;;9.93;6.50;;;;;;;;;;5052490;27;90196;-71
2023/12/17 12:36:24;;;;;;;13.67;6.53;;;;;;;;;;5057528;27;90013;-72
2023/12/17 12:39:00;;;;;;;7.57;5.43;;;;;;;;;;5056887;27;87629;-72
2023/12/17 12:41:29;;;;;;;10.27;5.87;;;;;;;;;;5057601;27;89779;-72
2023/12/17 12:43:59;;;;;;;11.70;6.40;;;;;;;;;;5057800;27;91396;-71
2023/12/17 12:46:27;;;;;;;8.93;5.97;;;;;;;;;;5056373;27;87784;-71
2023/12/17 12:48:56;;;;;;;8.93;6.30;;;;;;;;;;5057770;27;87823;-71
2023/12/17 12:51:25;;;;;;;8.50;5.57;;;;;;;;;;5057591;27;88536;-71
2023/12/17 12:53:54;;;;;;;9.07;5.30;;;;;;;;;;5056544;27;91896;-71
2023/12/17 12:56:22;;;;;;;11.20;6.00;;;;;;;;;;5056409;27;89000;-71
2023/12/17 12:58:51;;;;;;;11.17;7.27;;;;;;;;;;5056864;27;87888;-71
2023/12/17 13:01:22;;;;;;;8.40;5.50;;;;;;;;;;5056943;27;89652;-71
2023/12/17 13:03:50;;;;;;;10.93;5.43;;;;;;;;;;5057693;27;89165;-71
2023/12/17 13:06:19;;;;;;;12.90;5.60;;;;;;;;;;5057651;27;88983;-71
2023/12/17 13:08:48;;;;;;;8.80;5.40;;;;;;;;;;5056682;27;88076;-71
2023/12/17 13:11:16;;;;;;;6.50;4.70;;;;;;;;;;5057249;27;88795;-71
2023/12/17 13:13:46;;;;;;;8.63;5.50;;;;;;;;;;5057731;27;87954;-72
2023/12/17 13:16:14;;;;;;;10.57;5.87;;;;;;;;;;5057738;27;88927;-72
2023/12/17 13:18:44;;;;;;;7.60;5.63;;;;;;;;;;5057692;27;88023;-72
2023/12/17 13:21:13;;;;;;;7.40;4.77;;;;;;;;;;5057085;27;88680;-72
2023/12/17 13:23:42;;;;;;;7.40;6.17;;;;;;;;;;5055879;27;90244;-72
2023/12/17 13:26:10;;;;;;;8.43;5.90;;;;;;;;;;5057828;27;88605;-71
2023/12/17 13:28:46;;;;;;;6.67;4.77;;;;;;;;;;5058173;27;87918;-71
2023/12/17 13:31:15;;;;;;;8.60;4.90;;;;;;;;;;5057535;27;89748;-72
2023/12/17 13:33:45;;;;;;;6.73;4.20;;;;;;;;;;5056911;27;89171;-72
2023/12/17 13:36:13;;;;;;;5.23;4.10;;;;;;;;;;5055385;27;88064;-74
2023/12/17 13:38:42;;;;;;;10.87;5.37;;;;;;;;;;5056891;27;87696;-72
2023/12/17 13:41:10;;;;;;;9.40;5.43;;;;;;;;;;5054824;27;89644;-72
2023/12/17 13:43:39;;;;;;;6.77;4.63;;;;;;;;;;5059484;27;89019;-72
2023/12/17 13:46:07;;;;;;;7.10;4.67;;;;;;;;;;5059154;27;88870;-73
2023/12/17 13:48:36;;;;;;;5.63;3.70;;;;;;;;;;5059129;27;87950;-73
2023/12/17 13:51:06;;;;;;;6.77;3.67;;;;;;;;;;5059722;27;89713;-73
2023/12/17 13:53:34;;;;;;;9.00;4.37;;;;;;;;;;5059048;27;87967;-72
2023/12/17 13:56:03;;;;;;;7.07;4.03;;;;;;;;;;5059896;27;87738;-72
2023/12/17 13:58:31;;;;;;;6.13;3.53;;;;;;;;;;5061676;27;87645;-72
2023/12/17 14:01:00;;;;;;;9.00;4.10;;;;;;;;;;5062930;27;89612;-72
2023/12/17 14:03:28;;;;;;;9.20;5.03;;;;;;;;;;5071892;27;88124;-73
2023/12/17 14:05:56;;;;;;;7.87;4.60;;;;;;;;;;5061984;27;88842;-72
2023/12/17 14:08:27;;;;;;;6.00;4.40;;;;;;;;;;5058706;27;87777;-72
2023/12/17 14:10:57;;;;;;;7.93;4.10;;;;;;;;;;5055581;27;89677;-72
2023/12/17 14:13:25;;;;;;;6.93;4.57;;;;;;;;;;5060973;27;90054;-72
2023/12/17 14:15:54;;;;;;;8.03;4.23;;;;;;;;;;5058419;27;89797;-72
2023/12/17 14:18:23;;;;;;;9.63;5.00;;;;;;;;;;5062183;27;87556;-72
2023/12/17 14:20:52;;;;;;;5.90;4.47;;;;;;;;;;5061491;27;89254;-72
2023/12/17 14:23:21;;;;;;;7.63;5.07;;;;;;;;;;5061505;27;89167;-72
2023/12/17 14:25:50;;;;;;;8.77;5.17;;;;;;;;;;5061194;27;89025;-72
2023/12/17 14:28:19;;;;;;;7.63;4.83;;;;;;;;;;5061374;27;87654;-73
2023/12/17 14:30:48;;;;;;;7.77;4.63;;;;;;;;;;5061630;27;89745;-72
2023/12/17 14:33:16;;;;;;;8.37;5.07;;;;;;;;;;5061094;27;88713;-72
2023/12/17 14:35:45;;;;;;;10.23;5.30;;;;;;;;;;5061805;27;88913;-71
2023/12/17 14:38:14;;;;;;;8.83;5.50;;;;;;;;;;5060984;27;88044;-72
2023/12/17 14:40:42;;;;;;;7.63;6.20;;;;;;;;;;5061228;27;89389;-72
2023/12/17 14:43:12;;;;;;;7.47;5.77;;;;;;;;;;5061789;27;89108;-71
2023/12/17 14:45:40;;;;;;;12.27;6.17;;;;;;;;;;5061334;27;88945;-71
2023/12/17 14:48:10;;;;;;;8.87;5.93;;;;;;;;;;5060989;27;87761;-72
2023/12/17 14:50:39;;;;;;;12.70;6.43;;;;;;;;;;5060795;27;88578;-70
2023/12/17 14:53:07;;;;;;;9.37;5.83;;;;;;;;;;5060570;27;88947;-70